Time;durP1;ratioP1;P1;durP2;ratioP2;P2;SDS_P1;SDS_P2;PMS_P1;PMS_P2;Temp;Humidity;BMP_temperature;BMP_pressure;BME280_temperature;BME280_humidity;BME280_pressure;Samples;Min_cycle;Max_cycle;Signal;HPM_P1;HPM_P2
2022/06/08 00:00:25;;;;;;;6.10;3.90;;;;;;;19.32;41.18;100248.02;117464;1183;24286;-54
2022/06/08 00:03:06;;;;;;;7.90;4.70;;;;;;;19.29;41.16;100249.03;117385;1183;22918;-54
2022/06/08 00:05:33;;;;;;;7.10;3.80;;;;;;;19.22;41.24;100249.38;117385;1186;22979;-48
2022/06/08 00:08:01;;;;;;;7.00;3.50;;;;;;;19.17;41.27;100244.98;117350;1182;24130;-48
2022/06/08 00:10:28;;;;;;;7.40;3.60;;;;;;;19.15;41.32;100244.05;117433;1186;23069;-54
2022/06/08 00:12:55;;;;;;;6.30;3.70;;;;;;;19.10;41.30;100241.98;117411;1185;22721;-49
2022/06/08 00:15:22;;;;;;;6.60;3.80;;;;;;;19.05;41.45;100237.92;117452;1186;22954;-55
2022/06/08 00:17:49;;;;;;;5.90;3.80;;;;;;;19.02;41.49;100236.14;117395;1184;24167;-54
2022/06/08 00:20:16;;;;;;;6.60;3.50;;;;;;;19.02;41.58;100234.52;117419;1185;23560;-51
2022/06/08 00:22:44;;;;;;;7.80;4.30;;;;;;;19.04;41.74;100233.91;117355;1182;24134;-55
2022/06/08 00:25:11;;;;;;;7.80;3.90;;;;;;;19.03;41.80;100232.91;117406;1185;23076;-54
2022/06/08 00:27:38;;;;;;;8.30;3.70;;;;;;;19.01;41.93;100234.42;117450;1184;22037;-54
2022/06/08 00:30:06;;;;;;;6.40;3.70;;;;;;;18.99;41.98;100232.73;117365;1185;24136;-54
2022/06/08 00:32:33;;;;;;;7.40;4.20;;;;;;;18.96;42.03;100234.66;117451;1186;23436;-49
2022/06/08 00:35:01;;;;;;;6.70;4.00;;;;;;;18.93;42.05;100234.63;117309;1184;23541;-49
2022/06/08 00:37:29;;;;;;;8.60;4.30;;;;;;;18.92;42.22;100232.34;117403;1185;23554;-49
2022/06/08 00:39:56;;;;;;;8.50;4.10;;;;;;;18.91;42.23;100234.15;117358;1185;21861;-49
2022/06/08 00:42:23;;;;;;;10.90;3.80;;;;;;;18.90;42.38;100232.98;117362;1184;21856;-54
2022/06/08 00:45:19;;;;;;;7.20;3.90;;;;;;;18.88;42.31;100233.06;117405;1185;21848;-49
2022/06/08 00:47:51;;;;;;;6.60;4.00;;;;;;;18.84;42.40;100230.59;117397;1185;22942;-54
2022/06/08 00:50:51;;;;;;;8.30;4.20;;;;;;;18.81;42.49;100222.36;117419;1186;24162;-54
2022/06/08 00:53:22;;;;;;;6.20;4.40;;;;;;;18.81;42.63;100220.95;117075;1186;23646;-49
2022/06/08 00:55:49;;;;;;;6.30;4.00;;;;;;;18.84;42.64;100219.91;117434;1182;23458;-54
2022/06/08 00:58:19;;;;;;;7.50;3.80;;;;;;;18.89;42.74;100214.19;117421;1185;23580;-49
2022/06/08 01:00:46;;;;;;;6.00;3.90;;;;;;;18.95;42.87;100212.14;117385;1182;21855;-49
2022/06/08 01:03:14;;;;;;;9.30;4.30;;;;;;;19.03;42.95;100208.90;117369;1184;23566;-49
2022/06/08 01:05:46;;;;;;;6.80;3.90;;;;;;;19.11;43.05;100212.06;117438;1184;22085;-54
2022/06/08 01:08:38;;;;;;;9.30;4.00;;;;;;;19.14;43.05;100210.45;117442;1186;21874;-54
2022/06/08 01:11:13;;;;;;;7.70;4.30;;;;;;;19.21;43.07;100211.38;117345;1182;22918;-49
2022/06/08 01:13:42;;;;;;;8.30;4.30;;;;;;;19.30;43.12;100210.58;117351;1186;22813;-54
2022/06/08 01:16:11;;;;;;;6.40;4.10;;;;;;;19.37;42.97;100213.05;117380;1186;21887;-55
2022/06/08 01:18:38;;;;;;;6.60;4.50;;;;;;;19.42;43.03;100217.57;117298;1186;21890;-54
2022/06/08 01:21:20;;;;;;;6.40;4.30;;;;;;;19.46;42.99;100218.78;117373;1183;21848;-55
2022/06/08 01:23:59;;;;;;;6.50;4.40;;;;;;;19.51;42.93;100230.45;117426;1182;23513;-54
2022/06/08 01:26:50;;;;;;;8.40;4.20;;;;;;;19.58;43.11;100240.96;117370;1184;22838;-54
2022/06/08 01:29:31;;;;;;;6.80;3.70;;;;;;;19.60;42.95;100241.40;117414;1182;23458;-55
2022/06/08 01:32:02;;;;;;;7.20;3.40;;;;;;;19.58;42.88;100241.15;117415;1185;23531;-49
2022/06/08 01:34:49;;;;;;;7.60;3.60;;;;;;;19.60;42.88;100242.48;117305;1185;24145;-49
2022/06/08 01:37:35;;;;;;;7.80;4.40;;;;;;;19.63;42.83;100237.71;117336;1185;21855;-49
2022/06/08 01:40:07;;;;;;;6.60;3.80;;;;;;;19.65;43.03;100236.92;117424;1182;23576;-49
2022/06/08 01:42:50;;;;;;;6.70;4.30;;;;;;;19.66;42.95;100238.58;117365;1184;21852;-49
2022/06/08 01:45:29;;;;;;;8.60;4.20;;;;;;;19.71;43.06;100236.23;117405;1183;24158;-54
2022/06/08 01:48:02;;;;;;;9.70;4.30;;;;;;;19.73;42.92;100236.78;117213;1182;21858;-54
2022/06/08 01:51:10;;;;;;;6.20;4.10;;;;;;;19.77;42.92;100235.71;117378;1183;21893;-55
2022/06/08 01:53:47;;;;;;;10.20;4.90;;;;;;;19.81;42.97;100238.73;117338;1188;22916;-54
2022/06/08 01:56:37;;;;;;;11.30;4.60;;;;;;;19.82;42.99;100238.64;117344;1185;21891;-49
2022/06/08 01:59:29;;;;;;;8.40;4.50;;;;;;;19.83;42.94;100237.70;117415;1182;21855;-54
2022/06/08 02:02:01;;;;;;;9.00;4.70;;;;;;;19.85;42.92;100234.39;117364;1182;23435;-50
2022/06/08 02:04:46;;;;;;;7.50;4.30;;;;;;;19.84;42.90;100233.74;117419;1184;21954;-49
2022/06/08 02:07:22;;;;;;;8.60;4.30;;;;;;;19.77;42.77;100234.44;117316;1182;23441;-55
2022/06/08 02:09:57;;;;;;;8.20;4.10;;;;;;;19.70;42.82;100242.64;117349;1185;22906;-54
2022/06/08 02:12:24;;;;;;;10.20;3.70;;;;;;;19.65;43.03;100244.38;117325;1183;24137;-55
2022/06/08 02:15:03;;;;;;;7.80;4.20;;;;;;;19.58;43.06;100243.11;117195;1186;21839;-49
2022/06/08 02:17:45;;;;;;;8.00;4.00;;;;;;;19.48;43.02;100240.43;117349;1183;23540;-55
2022/06/08 02:20:22;;;;;;;7.50;3.90;;;;;;;19.37;43.19;100242.92;117439;1182;22925;-54
2022/06/08 02:22:57;;;;;;;7.00;3.60;;;;;;;19.30;43.19;100249.15;117443;1183;24285;-55
2022/06/08 02:25:37;;;;;;;7.90;4.10;;;;;;;19.27;43.31;100253.05;117425;1185;21890;-55
2022/06/08 02:28:07;;;;;;;9.10;4.20;;;;;;;19.31;43.25;100253.20;117422;1182;23542;-50
2022/06/08 02:30:41;;;;;;;12.00;4.60;;;;;;;19.26;43.19;100249.02;117469;1182;22172;-49
2022/06/08 02:35:59;;;;;;;9.30;4.10;;;;;;;19.03;43.34;100256.18;117393;1182;22636;-49
2022/06/08 02:38:30;;;;;;;12.20;4.40;;;;;;;18.97;43.41;100257.42;117509;1183;23028;-49
2022/06/08 02:40:57;;;;;;;7.90;4.30;;;;;;;18.90;43.47;100262.11;117449;1186;23462;-50
2022/06/08 02:43:34;;;;;;;8.10;4.00;;;;;;;18.81;43.56;100263.77;117420;1183;22797;-49
2022/06/08 02:46:28;;;;;;;7.40;4.20;;;;;;;18.73;43.67;100262.41;117399;1186;23439;-50
2022/06/08 02:48:56;;;;;;;8.10;4.20;;;;;;;18.66;43.83;100257.39;117319;1180;22915;-49
2022/06/08 02:51:28;;;;;;;6.60;4.60;;;;;;;18.63;43.88;100261.82;117368;1183;22138;-49
2022/06/08 02:54:03;;;;;;;7.70;4.50;;;;;;;18.64;44.06;100261.41;117388;1182;24138;-50
2022/06/08 02:56:49;;;;;;;6.20;4.10;;;;;;;18.63;44.01;100260.58;117528;1182;23563;-54
2022/06/08 02:59:30;;;;;;;8.00;4.70;;;;;;;18.63;44.17;100261.66;117322;1184;22319;-49
2022/06/08 03:02:06;;;;;;;7.50;4.70;;;;;;;18.64;44.22;100261.07;117399;1183;24154;-49
2022/06/08 03:04:43;;;;;;;9.20;4.70;;;;;;;18.63;44.39;100255.45;117488;1182;22982;-50
2022/06/08 03:07:15;;;;;;;10.30;4.20;;;;;;;18.62;44.38;100258.30;117317;1182;22868;-49
2022/06/08 03:09:42;;;;;;;7.10;4.50;;;;;;;18.65;44.51;100260.49;117411;1185;23494;-50
2022/06/08 03:12:15;;;;;;;7.60;4.40;;;;;;;18.70;44.74;100262.35;117286;1182;23551;-55
2022/06/08 03:14:43;;;;;;;8.80;4.60;;;;;;;18.79;44.78;100257.84;117353;1185;22051;-54
2022/06/08 03:17:11;;;;;;;9.30;5.00;;;;;;;18.89;44.82;100256.84;117415;1184;21845;-55
2022/06/08 03:19:38;;;;;;;8.10;5.00;;;;;;;18.97;44.96;100254.69;117321;1182;22985;-51
2022/06/08 03:22:05;;;;;;;11.90;4.50;;;;;;;19.15;44.98;100255.45;117336;1182;21875;-51
2022/06/08 03:24:33;;;;;;;9.70;4.80;;;;;;;19.27;45.08;100249.84;117444;1182;22081;-55
2022/06/08 03:27:03;;;;;;;8.60;5.40;;;;;;;19.38;44.98;100253.90;117381;1183;23553;-50
2022/06/08 03:29:31;;;;;;;9.20;4.60;;;;;;;19.48;45.05;100253.55;117401;1184;23519;-50
2022/06/08 03:31:58;;;;;;;11.70;5.90;;;;;;;19.59;45.15;100251.41;117387;1183;24136;-55
2022/06/08 03:34:25;;;;;;;10.50;5.00;;;;;;;19.70;45.20;100254.41;117265;1181;22918;-50
2022/06/08 03:36:52;;;;;;;15.70;5.90;;;;;;;19.82;45.26;100252.92;117343;1182;22035;-50
2022/06/08 03:39:19;;;;;;;10.00;4.90;;;;;;;19.89;45.40;100248.81;117396;1181;22611;-50
2022/06/08 03:41:46;;;;;;;10.50;5.00;;;;;;;20.02;45.44;100250.27;117378;1182;23890;-50
2022/06/08 03:44:13;;;;;;;9.60;4.90;;;;;;;20.15;45.44;100252.21;117348;1182;22163;-55
2022/06/08 03:46:47;;;;;;;10.10;5.10;;;;;;;20.31;45.53;100252.11;117449;1186;21975;-50
2022/06/08 03:49:14;;;;;;;11.10;5.60;;;;;;;20.49;45.60;100247.91;117451;1182;21848;-55
2022/06/08 03:51:41;;;;;;;11.80;5.60;;;;;;;20.69;45.54;100247.50;117443;1182;23433;-51
2022/06/08 03:54:11;;;;;;;15.60;5.90;;;;;;;20.90;45.53;100245.62;117305;1183;22970;-50
2022/06/08 03:56:38;;;;;;;13.30;5.80;;;;;;;21.11;45.55;100244.77;117378;1186;21858;-55
2022/06/08 03:59:05;;;;;;;9.50;5.70;;;;;;;21.32;45.56;100245.68;117177;1183;23735;-50
2022/06/08 04:01:32;;;;;;;11.00;5.40;;;;;;;21.52;45.48;100248.23;117325;1182;22314;-50
2022/06/08 04:03:59;;;;;;;11.20;5.70;;;;;;;21.72;45.41;100250.48;117331;1185;24091;-55
2022/06/08 04:06:26;;;;;;;7.70;4.90;;;;;;;21.92;45.23;100245.67;117375;1182;22905;-51
2022/06/08 04:08:53;;;;;;;12.30;5.20;;;;;;;22.13;45.22;100242.77;117373;1182;22978;-56
2022/06/08 04:11:20;;;;;;;8.90;4.90;;;;;;;22.33;45.26;100240.64;117392;1182;23660;-50
2022/06/08 04:13:47;;;;;;;7.70;5.00;;;;;;;22.53;44.96;100241.54;117368;1185;22989;-56
2022/06/08 04:16:15;;;;;;;10.10;6.30;;;;;;;22.74;44.94;100239.97;117330;1184;21831;-55
2022/06/08 04:18:43;;;;;;;11.00;5.50;;;;;;;22.96;44.97;100241.74;117327;1180;22897;-50
2022/06/08 04:21:10;;;;;;;9.10;5.80;;;;;;;23.20;45.06;100241.45;117424;1183;22977;-55
2022/06/08 04:23:39;;;;;;;13.30;6.10;;;;;;;23.43;45.08;100242.24;117490;1181;23478;-51
2022/06/08 04:26:06;;;;;;;8.20;4.50;;;;;;;23.66;44.88;100240.34;117367;1185;21846;-56
2022/06/08 04:28:33;;;;;;;9.40;4.50;;;;;;;23.89;44.79;100237.86;117376;1182;23541;-51
2022/06/08 04:31:01;;;;;;;9.90;4.90;;;;;;;24.10;44.55;100233.32;117361;1183;23004;-56
2022/06/08 04:33:28;;;;;;;7.50;4.60;;;;;;;24.31;44.48;100233.96;117396;1185;22902;-51
2022/06/08 04:35:55;;;;;;;6.80;4.40;;;;;;;24.51;44.26;100229.86;117483;1182;21960;-55
2022/06/08 04:38:23;;;;;;;6.70;4.00;;;;;;;24.73;44.24;100229.70;117475;1185;23702;-51
2022/06/08 04:40:50;;;;;;;5.80;4.20;;;;;;;24.97;44.16;100227.06;117377;1182;22709;-56
2022/06/08 04:43:17;;;;;;;5.30;3.80;;;;;;;25.21;43.97;100223.80;117291;1185;21855;-52
2022/06/08 04:45:44;;;;;;;6.40;4.10;;;;;;;25.46;43.70;100225.86;118217;1184;22180;-56
2022/06/08 04:48:13;;;;;;;5.80;4.00;;;;;;;25.70;43.72;100225.45;117368;1183;22954;-56
2022/06/08 04:50:40;;;;;;;7.80;4.20;;;;;;;25.99;43.52;100227.65;117371;1182;24132;-56
2022/06/08 04:53:07;;;;;;;6.40;4.20;;;;;;;26.23;43.46;100226.69;117423;1185;21904;-51
2022/06/08 04:55:34;;;;;;;10.20;4.40;;;;;;;26.54;43.23;100227.59;117396;1182;23439;-56
2022/06/08 04:58:02;;;;;;;9.40;5.00;;;;;;;26.85;42.92;100225.30;117440;1186;22638;-57
2022/06/08 05:00:29;;;;;;;7.70;4.40;;;;;;;27.11;42.58;100222.77;117407;1185;24174;-53
2022/06/08 05:02:56;;;;;;;7.70;5.00;;;;;;;27.33;42.38;100223.59;117468;1185;23439;-56
2022/06/08 05:05:42;;;;;;;8.90;4.80;;;;;;;27.58;42.04;100222.00;117436;1186;21859;-57
2022/06/08 05:08:09;;;;;;;7.60;4.40;;;;;;;27.79;41.45;100224.41;117384;1183;22992;-53
2022/06/08 05:10:36;;;;;;;7.40;4.20;;;;;;;27.93;41.16;100225.48;117419;1185;21856;-56
2022/06/08 05:13:05;;;;;;;9.00;3.90;;;;;;;28.11;41.08;100225.04;117479;1182;23634;-53
2022/06/08 05:15:34;;;;;;;6.20;4.00;;;;;;;28.29;40.86;100225.76;117491;1185;22915;-53
2022/06/08 05:18:02;;;;;;;6.10;3.60;;;;;;;28.47;40.88;100223.27;117408;1185;22905;-57
2022/06/08 05:20:29;;;;;;;7.50;4.40;;;;;;;28.63;40.82;100221.48;117536;1182;23496;-54
2022/06/08 05:22:56;;;;;;;4.80;3.60;;;;;;;28.86;40.55;100218.70;117440;1184;23657;-54
2022/06/08 05:25:26;;;;;;;7.50;3.90;;;;;;;29.07;40.31;100220.16;117406;1183;23551;-56
2022/06/08 05:27:53;;;;;;;8.80;4.00;;;;;;;29.27;40.25;100224.17;117425;1182;23563;-54
2022/06/08 05:30:21;;;;;;;6.50;3.70;;;;;;;29.45;39.99;100223.55;117485;1186;23462;-57
2022/06/08 05:32:48;;;;;;;5.40;3.40;;;;;;;29.67;39.62;100221.66;117412;1180;22611;-53
2022/06/08 05:35:15;;;;;;;5.70;3.40;;;;;;;29.83;39.50;100222.52;117383;1185;22533;-54
2022/06/08 05:37:42;;;;;;;6.00;3.50;;;;;;;29.94;39.17;100221.63;117384;1182;24156;-53
2022/06/08 05:40:11;;;;;;;5.10;3.60;;;;;;;30.00;38.77;100222.38;117385;1185;22900;-57
2022/06/08 05:42:38;;;;;;;5.70;3.50;;;;;;;30.01;38.63;100225.34;117432;1184;21970;-54
2022/06/08 05:45:07;;;;;;;4.00;2.90;;;;;;;30.02;38.50;100224.33;117412;1182;24142;-55
2022/06/08 05:47:34;;;;;;;7.10;3.40;;;;;;;30.02;38.19;100223.93;117423;1189;23563;-58
2022/06/08 05:50:01;;;;;;;7.00;3.00;;;;;;;30.01;37.76;100226.94;117404;1182;23432;-58
2022/06/08 05:52:29;;;;;;;5.80;3.40;;;;;;;30.01;37.53;100225.30;117505;1184;22117;-57
2022/06/08 05:54:57;;;;;;;6.30;3.10;;;;;;;30.05;37.74;100220.70;117435;1185;24179;-58
2022/06/08 05:57:24;;;;;;;4.40;2.40;;;;;;;30.12;37.53;100220.30;117450;1182;24145;-55
2022/06/08 05:59:51;;;;;;;7.10;2.70;;;;;;;30.17;37.36;100222.55;117403;1184;24162;-51
2022/06/08 06:02:18;;;;;;;5.30;2.80;;;;;;;30.16;37.17;100225.29;117392;1182;23891;-53
2022/06/08 06:04:46;;;;;;;7.50;3.10;;;;;;;30.16;37.10;100232.00;117389;1189;21836;-56
2022/06/08 06:07:13;;;;;;;5.40;3.20;;;;;;;30.10;37.03;100235.63;117331;1186;22173;-54
2022/06/08 06:09:41;;;;;;;5.30;2.90;;;;;;;30.07;36.94;100238.70;117397;1186;23813;-52
2022/06/08 06:12:08;;;;;;;6.80;3.00;;;;;;;30.06;36.92;100239.47;117336;1185;23537;-52
2022/06/08 06:14:36;;;;;;;5.40;2.90;;;;;;;30.08;36.82;100237.89;117370;1183;23634;-56
2022/06/08 06:17:04;;;;;;;5.90;3.20;;;;;;;30.17;36.89;100240.63;117303;1186;22813;-55
2022/06/08 06:19:31;;;;;;;3.80;2.50;;;;;;;30.33;36.89;100237.59;117347;1182;23538;-51
2022/06/08 06:21:58;;;;;;;7.00;2.60;;;;;;;30.52;36.87;100235.17;117435;1186;21848;-57
2022/06/08 06:24:25;;;;;;;5.40;2.40;;;;;;;30.76;36.74;100235.58;117423;1185;23541;-53
2022/06/08 06:26:53;;;;;;;3.50;2.30;;;;;;;31.05;36.64;100232.88;117387;1184;23537;-52
2022/06/08 06:29:21;;;;;;;3.60;2.30;;;;;;;31.42;36.70;100228.59;117542;1182;23513;-56
2022/06/08 06:31:59;;;;;;;4.30;2.70;;;;;;;31.82;36.38;100229.36;117393;1185;22912;-53
2022/06/08 06:34:26;;;;;;;4.60;2.20;;;;;;;32.14;35.76;100230.38;117387;1185;23482;-53
2022/06/08 06:36:54;;;;;;;3.90;2.10;;;;;;;32.18;34.82;100229.60;117385;1183;21860;-53
2022/06/08 06:39:21;;;;;;;4.50;1.70;;;;;;;32.10;34.45;100230.24;117375;1185;22896;-53
2022/06/08 06:41:49;;;;;;;2.80;1.70;;;;;;;31.89;33.52;100231.54;117489;1185;23541;-53
2022/06/08 06:44:17;;;;;;;3.10;1.50;;;;;;;31.62;33.51;100231.46;117472;1185;22644;-53
2022/06/08 06:46:44;;;;;;;3.80;1.60;;;;;;;31.49;33.44;100230.21;117413;1182;22446;-56
2022/06/08 06:49:11;;;;;;;3.50;1.50;;;;;;;31.50;33.76;100231.69;117393;1185;22090;-54
2022/06/08 06:51:39;;;;;;;2.80;1.60;;;;;;;31.64;33.53;100228.31;117453;1184;23634;-56
2022/06/08 06:54:07;;;;;;;3.00;1.40;;;;;;;31.76;33.33;100230.19;117506;1183;23542;-55
2022/06/08 06:56:35;;;;;;;2.00;1.30;;;;;;;31.87;33.11;100228.81;117449;1185;23563;-53
2022/06/08 06:59:03;;;;;;;3.40;1.60;;;;;;;31.89;32.91;100224.40;117426;1186;22439;-53
2022/06/08 07:01:30;;;;;;;4.80;1.40;;;;;;;31.86;32.63;100226.43;117603;1182;22726;-53
2022/06/08 07:03:57;;;;;;;3.20;1.40;;;;;;;31.92;32.94;100227.45;117565;1186;21855;-56
2022/06/08 07:06:24;;;;;;;2.60;1.60;;;;;;;32.12;33.19;100222.58;117426;1185;22935;-54
2022/06/08 07:08:51;;;;;;;2.90;1.40;;;;;;;32.40;33.23;100218.60;117407;1186;23646;-54
2022/06/08 07:11:33;;;;;;;3.70;1.40;;;;;;;32.77;33.43;100219.65;117402;1186;22985;-56
2022/06/08 07:14:02;;;;;;;2.90;1.80;;;;;;;33.15;31.99;100215.22;117355;1185;22979;-53
2022/06/08 07:16:29;;;;;;;4.60;1.80;;;;;;;33.32;32.05;100215.70;117454;1183;22692;-54
2022/06/08 07:18:57;;;;;;;6.80;1.70;;;;;;;33.55;32.28;100211.27;117489;1179;21839;-56
2022/06/08 07:21:24;;;;;;;3.40;1.40;;;;;;;33.82;31.59;100203.06;117355;1182;23535;-58
2022/06/08 07:23:52;;;;;;;4.10;1.90;;;;;;;33.92;31.19;100203.33;117227;1183;22922;-55
2022/06/08 07:26:24;;;;;;;3.70;2.00;;;;;;;34.02;31.21;100203.63;117406;1184;22859;-58
2022/06/08 07:28:55;;;;;;;2.90;1.70;;;;;;;34.07;30.37;100201.93;117341;1184;21970;-54
2022/06/08 07:31:22;;;;;;;3.10;1.70;;;;;;;34.17;31.13;100199.52;117330;1183;22893;-57
2022/06/08 07:33:49;;;;;;;5.90;2.00;;;;;;;34.42;30.31;100202.21;117270;1184;22057;-54
2022/06/08 07:36:16;;;;;;;3.60;1.70;;;;;;;34.51;29.76;100200.81;117607;1184;22933;-56
2022/06/08 07:38:43;;;;;;;3.90;1.50;;;;;;;34.53;29.94;100196.86;117257;1182;22912;-53
2022/06/08 07:41:11;;;;;;;3.40;2.00;;;;;;;34.40;29.19;100192.89;117403;1183;23885;-53
2022/06/08 07:43:39;;;;;;;4.30;1.80;;;;;;;34.29;29.20;100201.35;117183;1186;23527;-57
2022/06/08 07:46:06;;;;;;;5.20;2.60;;;;;;;34.20;29.04;100202.36;117261;1182;23509;-55
2022/06/08 07:51:19;;;;;;;3.30;1.70;;;;;;;34.40;29.06;100195.12;117259;1184;22988;-53
2022/06/08 07:53:46;;;;;;;4.00;2.10;;;;;;;34.62;29.60;100196.02;117360;1186;22800;-56
2022/06/08 07:56:13;;;;;;;3.60;1.90;;;;;;;35.07;30.10;100197.52;117372;1181;23435;-55
2022/06/08 07:58:41;;;;;;;5.60;2.00;;;;;;;35.66;29.92;100194.61;117293;1182;23541;-54
2022/06/08 08:01:08;;;;;;;5.30;2.00;;;;;;;36.22;29.86;100191.83;117348;1185;21974;-56
2022/06/08 08:03:35;;;;;;;4.60;1.90;;;;;;;36.71;29.77;100190.61;117336;1182;23436;-56
2022/06/08 08:06:02;;;;;;;4.40;1.80;;;;;;;37.11;29.20;100187.92;117289;1183;22785;-57
2022/06/08 08:08:30;;;;;;;5.70;2.20;;;;;;;37.32;28.50;100193.14;117362;1182;22054;-57
2022/06/08 08:10:57;;;;;;;3.90;1.70;;;;;;;37.33;28.61;100197.25;117305;1185;22899;-57
2022/06/08 08:13:24;;;;;;;6.40;1.90;;;;;;;37.28;28.53;100196.97;117386;1186;22957;-56
2022/06/08 08:15:52;;;;;;;4.20;1.90;;;;;;;37.15;28.22;100194.75;117395;1186;21843;-58
2022/06/08 08:18:19;;;;;;;3.50;1.80;;;;;;;37.04;28.10;100189.94;117345;1184;23463;-57
2022/06/08 08:20:47;;;;;;;6.50;1.70;;;;;;;36.96;28.21;100182.59;117340;1185;23653;-57
2022/06/08 08:23:14;;;;;;;7.00;2.30;;;;;;;36.84;27.97;100186.78;117368;1185;21934;-58
2022/06/08 08:25:41;;;;;;;3.70;1.90;;;;;;;36.70;28.10;100187.73;117394;1183;22915;-57
2022/06/08 08:28:09;;;;;;;3.80;1.80;;;;;;;36.51;28.01;100188.38;117418;1183;21907;-57
2022/06/08 08:30:36;;;;;;;5.20;2.30;;;;;;;36.34;27.82;100192.02;117323;1185;21864;-57
2022/06/08 08:33:03;;;;;;;2.90;1.70;;;;;;;36.20;27.45;100195.61;117239;1184;22613;-54
2022/06/08 08:35:30;;;;;;;3.80;1.60;;;;;;;36.17;27.97;100197.77;117338;1182;22090;-53
2022/06/08 08:37:58;;;;;;;5.00;1.70;;;;;;;36.33;27.81;100193.05;117377;1186;22639;-55
2022/06/08 08:40:47;;;;;;;7.50;2.30;;;;;;;36.51;27.69;100194.46;117370;1184;23563;-56
2022/06/08 08:43:17;;;;;;;3.50;1.30;;;;;;;36.59;27.64;100195.95;117366;1186;23515;-54
2022/06/08 08:46:15;;;;;;;2.90;1.40;;;;;;;36.59;27.49;100194.56;117318;1185;22905;-55
2022/06/08 08:49:08;;;;;;;3.20;1.30;;;;;;;36.43;26.62;100195.80;117545;1185;23439;-56
2022/06/08 08:51:43;;;;;;;2.40;1.40;;;;;;;35.88;26.38;100194.95;117285;1185;22905;-55
2022/06/08 08:54:34;;;;;;;4.00;1.50;;;;;;;35.45;26.66;100193.12;119501;1182;22228;-56
2022/06/08 08:57:20;;;;;;;3.20;1.40;;;;;;;35.25;26.71;100187.50;117634;1186;21858;-55
2022/06/08 08:59:49;;;;;;;3.30;1.80;;;;;;;35.19;26.52;100186.42;117267;1185;24175;-56
2022/06/08 09:05:16;;;;;;;4.30;1.70;;;;;;;35.42;26.60;100184.40;117081;1184;21851;-57
2022/06/08 09:07:43;;;;;;;7.00;2.10;;;;;;;35.65;26.58;100188.22;117327;1183;21888;-57
2022/06/08 09:10:22;;;;;;;5.00;1.80;;;;;;;35.65;26.42;100189.43;117329;1184;22162;-54
2022/06/08 09:12:49;;;;;;;3.70;1.40;;;;;;;35.70;25.94;100191.61;117476;1186;22636;-55
2022/06/08 09:15:21;;;;;;;4.60;1.90;;;;;;;35.71;25.98;100188.14;119407;1184;21679;-54
2022/06/08 09:17:56;;;;;;;3.30;1.60;;;;;;;35.86;26.24;100184.95;119355;1182;21766;-55
2022/06/08 09:20:35;;;;;;;4.90;1.90;;;;;;;36.05;26.40;100180.89;117945;1183;21993;-57
2022/06/08 09:23:20;;;;;;;4.80;2.00;;;;;;;36.21;26.13;100180.86;117247;1184;22699;-54
2022/06/08 09:26:12;;;;;;;4.10;1.90;;;;;;;36.13;25.51;100180.83;117188;1184;22969;-54
2022/06/08 09:28:39;;;;;;;4.70;1.50;;;;;;;35.93;25.59;100179.32;117271;1182;23436;-56
2022/06/08 09:31:22;;;;;;;2.90;1.90;;;;;;;35.85;24.78;100175.68;117097;1188;23541;-54
2022/06/08 09:33:50;;;;;;;5.20;1.60;;;;;;;35.52;24.74;100181.70;117266;1185;21848;-56
2022/06/08 09:36:25;;;;;;;2.90;1.80;;;;;;;35.32;25.15;100175.73;117072;1187;23567;-57
2022/06/08 09:38:52;;;;;;;4.20;1.80;;;;;;;35.30;25.31;100175.92;117376;1185;21852;-53
2022/06/08 09:41:29;;;;;;;3.20;1.90;;;;;;;35.49;25.39;100165.19;117388;1185;23465;-55
2022/06/08 09:44:15;;;;;;;2.80;1.60;;;;;;;35.90;25.47;100169.43;117404;1185;21849;-56
2022/06/08 09:53:06;;;;;;;4.20;1.80;;;;;;;36.18;23.71;100158.50;117364;1185;23557;-53
2022/06/08 09:56:01;;;;;;;3.30;1.70;;;;;;;35.97;23.19;100171.29;117249;1186;21890;-54
2022/06/08 09:58:34;;;;;;;6.00;1.80;;;;;;;35.85;23.56;100165.52;117331;1183;23531;-54
2022/06/08 10:01:07;;;;;;;4.50;2.10;;;;;;;35.90;23.67;100161.97;117314;1186;21887;-57
2022/06/08 10:04:02;;;;;;;6.80;1.90;;;;;;;36.15;23.96;100159.27;117367;1182;21859;-54
2022/06/08 10:06:36;;;;;;;3.70;1.70;;;;;;;36.43;24.31;100154.95;117083;1187;24133;-54
2022/06/08 10:09:23;;;;;;;3.90;1.80;;;;;;;36.77;24.19;100152.09;117316;1183;23432;-58
2022/06/08 10:12:00;;;;;;;3.50;1.80;;;;;;;37.22;24.00;100152.17;117215;1184;22090;-57
2022/06/08 10:14:42;;;;;;;5.20;1.80;;;;;;;37.56;23.69;100150.34;117246;1185;23252;-58
2022/06/08 10:17:26;;;;;;;5.00;2.00;;;;;;;37.44;22.85;100147.95;117285;1185;21849;-57
2022/06/08 10:19:58;;;;;;;5.00;2.20;;;;;;;37.02;22.84;100145.27;117299;1189;21856;-58
2022/06/08 10:22:27;;;;;;;3.40;1.90;;;;;;;36.82;22.81;100139.56;117333;1185;21925;-57
2022/06/08 10:24:58;;;;;;;3.50;2.00;;;;;;;36.73;22.67;100142.91;117347;1182;22675;-59
2022/06/08 10:27:34;;;;;;;3.40;2.00;;;;;;;36.69;23.06;100137.30;117323;1185;21842;-58
2022/06/08 10:30:11;;;;;;;3.40;1.80;;;;;;;37.01;23.57;100132.02;117338;1186;21852;-57
2022/06/08 10:32:49;;;;;;;3.20;2.30;;;;;;;37.64;23.25;100126.77;117408;1184;21852;-57
2022/06/08 10:35:23;;;;;;;4.60;2.10;;;;;;;37.97;22.64;100126.52;117271;1185;21932;-56
2022/06/08 10:37:50;;;;;;;3.50;2.30;;;;;;;37.91;22.11;100130.00;117326;1185;22924;-58
2022/06/08 10:40:26;;;;;;;6.40;2.40;;;;;;;37.88;22.57;100128.63;117272;1184;23536;-57
2022/06/08 10:42:54;;;;;;;6.00;2.20;;;;;;;38.19;23.09;100118.61;117295;1185;21856;-58
2022/06/08 10:45:36;;;;;;;5.30;2.00;;;;;;;38.60;22.52;100117.92;117198;1184;21853;-55
2022/06/08 10:48:10;;;;;;;5.30;2.00;;;;;;;38.65;22.33;100114.81;117315;1184;21966;-54
2022/06/08 10:50:39;;;;;;;9.20;2.30;;;;;;;38.76;22.41;100110.58;117444;1186;23540;-57
2022/06/08 10:56:27;;;;;;;5.10;2.00;;;;;;;38.76;22.31;100113.76;117355;1185;21960;-58
2022/06/08 10:59:08;;;;;;;7.50;2.00;;;;;;;39.08;22.67;100118.36;117370;1186;22432;-55
2022/06/08 11:01:53;;;;;;;3.40;1.80;;;;;;;39.55;22.58;100116.75;117398;1185;21940;-54
2022/06/08 11:04:35;;;;;;;3.80;2.30;;;;;;;39.93;21.93;100112.59;117347;1186;22979;-57
2022/06/08 11:07:14;;;;;;;2.20;1.70;;;;;;;39.97;21.71;100111.14;117266;1184;21852;-57
2022/06/08 11:09:42;;;;;;;5.10;2.10;;;;;;;39.69;21.61;100106.20;117357;1185;24294;-54
2022/06/08 11:12:12;;;;;;;3.50;2.00;;;;;;;39.64;21.29;100106.27;117397;1186;21838;-54
2022/06/08 11:14:42;;;;;;;5.90;2.10;;;;;;;39.40;21.04;100109.69;117276;1182;21860;-54
2022/06/08 11:17:33;;;;;;;12.70;2.60;;;;;;;39.22;21.60;100104.52;117282;1185;21839;-58
2022/06/08 11:20:13;;;;;;;3.00;2.00;;;;;;;39.55;21.57;100096.85;117444;1183;23582;-55
2022/06/08 11:23:01;;;;;;;2.50;2.10;;;;;;;39.67;21.19;100090.04;117269;1181;21849;-58
2022/06/08 11:25:32;;;;;;;4.40;2.00;;;;;;;39.57;21.15;100085.74;117386;1186;22302;-55
2022/06/08 11:28:48;;;;;;;3.80;2.50;;;;;;;39.68;20.63;100083.92;117169;1186;23446;-55
2022/06/08 11:31:27;;;;;;;5.50;2.50;;;;;;;39.45;20.23;100082.60;117653;1182;24310;-54
2022/06/08 11:33:54;;;;;;;6.50;2.50;;;;;;;39.27;20.76;100088.58;117288;1184;23592;-56
2022/06/08 11:36:34;;;;;;;4.90;2.60;;;;;;;39.21;20.63;100090.75;117346;1185;22160;-55
2022/06/08 11:39:26;;;;;;;4.30;2.30;;;;;;;38.94;20.90;100093.45;117268;1182;22893;-55
2022/06/08 11:41:57;;;;;;;3.90;2.40;;;;;;;38.71;20.61;100092.61;117363;1184;23544;-53
2022/06/08 11:44:24;;;;;;;6.00;2.40;;;;;;;38.34;20.41;100086.47;117341;1185;22912;-57
2022/06/08 11:47:01;;;;;;;5.70;2.50;;;;;;;37.95;20.71;100088.57;117199;1182;23567;-57
2022/06/08 11:49:30;;;;;;;5.20;2.20;;;;;;;37.83;20.90;100088.59;117287;1186;21842;-57
2022/06/08 11:51:57;;;;;;;4.80;2.90;;;;;;;37.61;20.54;100089.35;117413;1182;23545;-57
2022/06/08 11:54:31;;;;;;;6.00;2.70;;;;;;;37.00;20.64;100092.09;117285;1186;21857;-56
2022/06/08 11:57:11;;;;;;;6.20;2.80;;;;;;;36.76;21.19;100088.27;117353;1184;23556;-54